sensor_id;sensor_type;location;lat;lon;timestamp;P1;durP1;ratioP1;P2;durP2;ratioP2
63008;SDS011;49099;28.428;-16.488;2023-02-22T00:01:40;58.53;;;8.73;;
63008;SDS011;49099;28.428;-16.488;2023-02-22T00:04:17;66.10;;;9.82;;
63008;SDS011;49099;28.428;-16.488;2023-02-22T00:06:47;48.78;;;8.48;;
63008;SDS011;49099;28.428;-16.488;2023-02-22T00:09:15;70.38;;;10.05;;
63008;SDS011;49099;28.428;-16.488;2023-02-22T00:11:47;65.30;;;10.38;;
63008;SDS011;49099;28.428;-16.488;2023-02-22T00:14:14;59.97;;;9.63;;
63008;SDS011;49099;28.428;-16.488;2023-02-22T00:16:46;70.03;;;10.63;;
63008;SDS011;49099;28.428;-16.488;2023-02-22T00:19:13;70.47;;;10.68;;
63008;SDS011;49099;28.428;-16.488;2023-02-22T00:21:40;56.63;;;9.43;;
63008;SDS011;49099;28.428;-16.488;2023-02-22T00:24:10;68.68;;;10.20;;
63008;SDS011;49099;28.428;-16.488;2023-02-22T00:26:50;61.35;;;9.95;;
63008;SDS011;49099;28.428;-16.488;2023-02-22T00:29:23;60.95;;;9.02;;
63008;SDS011;49099;28.428;-16.488;2023-02-22T00:31:51;54.35;;;9.07;;
63008;SDS011;49099;28.428;-16.488;2023-02-22T00:34:22;51.33;;;9.27;;
63008;SDS011;49099;28.428;-16.488;2023-02-22T00:36:49;69.80;;;9.35;;
63008;SDS011;49099;28.428;-16.488;2023-02-22T00:39:17;56.67;;;9.13;;
63008;SDS011;49099;28.428;-16.488;2023-02-22T00:41:44;62.00;;;9.27;;
63008;SDS011;49099;28.428;-16.488;2023-02-22T00:44:11;59.15;;;9.50;;
63008;SDS011;49099;28.428;-16.488;2023-02-22T00:46:38;49.30;;;8.50;;
63008;SDS011;49099;28.428;-16.488;2023-02-22T00:49:06;58.25;;;8.95;;
63008;SDS011;49099;28.428;-16.488;2023-02-22T00:51:33;48.05;;;8.57;;
63008;SDS011;49099;28.428;-16.488;2023-02-22T00:54:00;52.60;;;8.90;;
63008;SDS011;49099;28.428;-16.488;2023-02-22T00:56:27;54.55;;;8.55;;
63008;SDS011;49099;28.428;-16.488;2023-02-22T00:58:55;54.25;;;8.75;;
63008;SDS011;49099;28.428;-16.488;2023-02-22T01:01:23;45.10;;;8.48;;
63008;SDS011;49099;28.428;-16.488;2023-02-22T01:03:51;47.03;;;8.73;;
63008;SDS011;49099;28.428;-16.488;2023-02-22T01:06:19;52.92;;;8.05;;
63008;SDS011;49099;28.428;-16.488;2023-02-22T01:08:48;51.28;;;8.57;;
63008;SDS011;49099;28.428;-16.488;2023-02-22T01:11:15;62.08;;;9.07;;
63008;SDS011;49099;28.428;-16.488;2023-02-22T01:13:43;48.13;;;8.23;;
63008;SDS011;49099;28.428;-16.488;2023-02-22T01:16:11;51.72;;;8.25;;
63008;SDS011;49099;28.428;-16.488;2023-02-22T01:18:38;50.88;;;7.88;;
63008;SDS011;49099;28.428;-16.488;2023-02-22T01:21:05;54.75;;;8.50;;
63008;SDS011;49099;28.428;-16.488;2023-02-22T01:23:34;51.17;;;8.60;;
63008;SDS011;49099;28.428;-16.488;2023-02-22T01:26:01;49.67;;;7.57;;
63008;SDS011;49099;28.428;-16.488;2023-02-22T01:28:31;54.30;;;7.22;;
63008;SDS011;49099;28.428;-16.488;2023-02-22T01:31:04;47.65;;;7.68;;
63008;SDS011;49099;28.428;-16.488;2023-02-22T01:33:36;49.30;;;8.37;;
63008;SDS011;49099;28.428;-16.488;2023-02-22T01:36:14;49.50;;;7.97;;
63008;SDS011;49099;28.428;-16.488;2023-02-22T01:38:42;53.83;;;7.60;;
63008;SDS011;49099;28.428;-16.488;2023-02-22T01:41:11;45.45;;;7.95;;
63008;SDS011;49099;28.428;-16.488;2023-02-22T01:43:38;50.53;;;7.35;;
63008;SDS011;49099;28.428;-16.488;2023-02-22T01:46:19;51.88;;;8.48;;
63008;SDS011;49099;28.428;-16.488;2023-02-22T01:51:27;43.10;;;7.75;;
63008;SDS011;49099;28.428;-16.488;2023-02-22T01:56:35;57.35;;;8.25;;
63008;SDS011;49099;28.428;-16.488;2023-02-22T01:59:07;54.58;;;7.93;;
63008;SDS011;49099;28.428;-16.488;2023-02-22T02:01:36;42.95;;;7.35;;
63008;SDS011;49099;28.428;-16.488;2023-02-22T02:04:06;51.20;;;7.65;;
63008;SDS011;49099;28.428;-16.488;2023-02-22T02:06:38;45.97;;;7.53;;
63008;SDS011;49099;28.428;-16.488;2023-02-22T02:09:16;57.00;;;8.27;;
63008;SDS011;49099;28.428;-16.488;2023-02-22T02:11:46;54.90;;;8.02;;
63008;SDS011;49099;28.428;-16.488;2023-02-22T02:14:14;48.50;;;7.90;;
63008;SDS011;49099;28.428;-16.488;2023-02-22T02:16:43;48.45;;;7.63;;
63008;SDS011;49099;28.428;-16.488;2023-02-22T02:19:23;54.80;;;7.90;;
63008;SDS011;49099;28.428;-16.488;2023-02-22T02:22:01;49.42;;;7.90;;
63008;SDS011;49099;28.428;-16.488;2023-02-22T02:25:06;42.75;;;7.47;;
63008;SDS011;49099;28.428;-16.488;2023-02-22T02:38:40;44.40;;;7.93;;
63008;SDS011;49099;28.428;-16.488;2023-02-22T02:41:15;43.58;;;7.05;;
63008;SDS011;49099;28.428;-16.488;2023-02-22T02:47:14;33.63;;;6.55;;
63008;SDS011;49099;28.428;-16.488;2023-02-22T02:52:28;35.85;;;6.75;;
63008;SDS011;49099;28.428;-16.488;2023-02-22T02:54:58;45.30;;;7.18;;
63008;SDS011;49099;28.428;-16.488;2023-02-22T02:57:28;39.50;;;6.38;;
63008;SDS011;49099;28.428;-16.488;2023-02-22T02:59:55;37.83;;;7.13;;
63008;SDS011;49099;28.428;-16.488;2023-02-22T03:11:06;48.97;;;7.72;;
63008;SDS011;49099;28.428;-16.488;2023-02-22T03:14:01;36.08;;;6.03;;
63008;SDS011;49099;28.428;-16.488;2023-02-22T03:19:32;35.90;;;6.10;;
63008;SDS011;49099;28.428;-16.488;2023-02-22T03:22:12;34.45;;;6.32;;
63008;SDS011;49099;28.428;-16.488;2023-02-22T03:25:02;35.10;;;6.40;;
63008;SDS011;49099;28.428;-16.488;2023-02-22T03:27:36;39.63;;;7.03;;
63008;SDS011;49099;28.428;-16.488;2023-02-22T03:30:10;32.65;;;6.03;;
63008;SDS011;49099;28.428;-16.488;2023-02-22T03:32:50;44.47;;;6.80;;
63008;SDS011;49099;28.428;-16.488;2023-02-22T03:35:23;37.92;;;6.97;;
63008;SDS011;49099;28.428;-16.488;2023-02-22T03:38:00;44.08;;;7.47;;
63008;SDS011;49099;28.428;-16.488;2023-02-22T03:40:30;36.47;;;6.65;;
63008;SDS011;49099;28.428;-16.488;2023-02-22T03:43:02;41.20;;;7.05;;
63008;SDS011;49099;28.428;-16.488;2023-02-22T03:45:33;44.00;;;6.35;;
63008;SDS011;49099;28.428;-16.488;2023-02-22T03:48:07;41.25;;;6.90;;
63008;SDS011;49099;28.428;-16.488;2023-02-22T03:50:45;36.70;;;6.53;;
63008;SDS011;49099;28.428;-16.488;2023-02-22T03:53:13;37.40;;;6.18;;
63008;SDS011;49099;28.428;-16.488;2023-02-22T03:55:40;42.28;;;6.72;;
63008;SDS011;49099;28.428;-16.488;2023-02-22T03:58:08;39.33;;;6.65;;
63008;SDS011;49099;28.428;-16.488;2023-02-22T04:00:38;42.15;;;6.78;;
63008;SDS011;49099;28.428;-16.488;2023-02-22T04:03:10;38.20;;;6.45;;
63008;SDS011;49099;28.428;-16.488;2023-02-22T04:05:37;38.90;;;6.38;;
63008;SDS011;49099;28.428;-16.488;2023-02-22T04:08:04;47.55;;;6.80;;
63008;SDS011;49099;28.428;-16.488;2023-02-22T04:10:32;42.83;;;6.60;;
63008;SDS011;49099;28.428;-16.488;2023-02-22T04:12:59;42.25;;;6.13;;
63008;SDS011;49099;28.428;-16.488;2023-02-22T04:15:27;34.58;;;6.95;;
63008;SDS011;49099;28.428;-16.488;2023-02-22T04:17:54;38.10;;;6.60;;
63008;SDS011;49099;28.428;-16.488;2023-02-22T04:20:21;40.03;;;6.85;;
63008;SDS011;49099;28.428;-16.488;2023-02-22T04:22:51;31.77;;;6.43;;
63008;SDS011;49099;28.428;-16.488;2023-02-22T04:25:19;36.58;;;6.20;;
63008;SDS011;49099;28.428;-16.488;2023-02-22T04:27:48;34.60;;;5.90;;
63008;SDS011;49099;28.428;-16.488;2023-02-22T04:30:16;34.40;;;6.32;;
63008;SDS011;49099;28.428;-16.488;2023-02-22T04:32:46;38.25;;;7.25;;
63008;SDS011;49099;28.428;-16.488;2023-02-22T04:35:14;44.10;;;6.50;;
63008;SDS011;49099;28.428;-16.488;2023-02-22T04:37:41;32.78;;;6.57;;
63008;SDS011;49099;28.428;-16.488;2023-02-22T04:40:08;43.08;;;7.95;;
63008;SDS011;49099;28.428;-16.488;2023-02-22T04:42:37;41.75;;;6.78;;
63008;SDS011;49099;28.428;-16.488;2023-02-22T04:45:05;38.80;;;7.03;;
63008;SDS011;49099;28.428;-16.488;2023-02-22T04:47:34;41.35;;;6.15;;
63008;SDS011;49099;28.428;-16.488;2023-02-22T04:50:03;49.03;;;6.53;;
63008;SDS011;49099;28.428;-16.488;2023-02-22T04:52:31;35.25;;;6.25;;
63008;SDS011;49099;28.428;-16.488;2023-02-22T04:54:59;39.63;;;6.25;;
63008;SDS011;49099;28.428;-16.488;2023-02-22T04:57:26;31.60;;;6.00;;
63008;SDS011;49099;28.428;-16.488;2023-02-22T04:59:53;39.63;;;6.65;;
63008;SDS011;49099;28.428;-16.488;2023-02-22T05:02:21;43.72;;;7.35;;
63008;SDS011;49099;28.428;-16.488;2023-02-22T05:04:48;35.50;;;6.68;;
63008;SDS011;49099;28.428;-16.488;2023-02-22T05:07:16;42.22;;;6.95;;
63008;SDS011;49099;28.428;-16.488;2023-02-22T05:09:43;42.25;;;6.70;;
63008;SDS011;49099;28.428;-16.488;2023-02-22T05:12:10;36.50;;;6.03;;
63008;SDS011;49099;28.428;-16.488;2023-02-22T05:14:37;48.63;;;7.57;;
63008;SDS011;49099;28.428;-16.488;2023-02-22T05:17:05;37.92;;;6.80;;
63008;SDS011;49099;28.428;-16.488;2023-02-22T05:19:32;41.22;;;7.30;;
63008;SDS011;49099;28.428;-16.488;2023-02-22T05:21:59;41.53;;;6.93;;
63008;SDS011;49099;28.428;-16.488;2023-02-22T05:24:26;34.78;;;5.65;;
63008;SDS011;49099;28.428;-16.488;2023-02-22T05:26:53;43.92;;;6.88;;
63008;SDS011;49099;28.428;-16.488;2023-02-22T05:29:20;40.60;;;6.43;;
63008;SDS011;49099;28.428;-16.488;2023-02-22T05:31:48;42.92;;;6.70;;
63008;SDS011;49099;28.428;-16.488;2023-02-22T05:34:15;37.33;;;6.30;;
63008;SDS011;49099;28.428;-16.488;2023-02-22T05:36:42;35.08;;;5.85;;
63008;SDS011;49099;28.428;-16.488;2023-02-22T05:39:10;34.95;;;6.15;;
63008;SDS011;49099;28.428;-16.488;2023-02-22T05:41:37;39.70;;;7.28;;
63008;SDS011;49099;28.428;-16.488;2023-02-22T05:44:04;43.97;;;6.90;;
63008;SDS011;49099;28.428;-16.488;2023-02-22T05:46:32;36.58;;;6.20;;
63008;SDS011;49099;28.428;-16.488;2023-02-22T05:48:59;35.50;;;6.95;;
63008;SDS011;49099;28.428;-16.488;2023-02-22T05:51:26;35.03;;;6.20;;
63008;SDS011;49099;28.428;-16.488;2023-02-22T05:53:53;38.33;;;6.40;;
63008;SDS011;49099;28.428;-16.488;2023-02-22T05:56:24;35.72;;;6.72;;
63008;SDS011;49099;28.428;-16.488;2023-02-22T05:58:53;52.08;;;6.35;;
63008;SDS011;49099;28.428;-16.488;2023-02-22T06:01:20;37.72;;;6.72;;
63008;SDS011;49099;28.428;-16.488;2023-02-22T06:03:48;38.03;;;6.80;;
63008;SDS011;49099;28.428;-16.488;2023-02-22T06:06:17;38.83;;;6.22;;
63008;SDS011;49099;28.428;-16.488;2023-02-22T06:08:48;34.13;;;6.15;;
63008;SDS011;49099;28.428;-16.488;2023-02-22T06:11:15;39.58;;;6.65;;
63008;SDS011;49099;28.428;-16.488;2023-02-22T06:13:47;37.17;;;6.50;;
63008;SDS011;49099;28.428;-16.488;2023-02-22T06:16:19;35.85;;;6.63;;
63008;SDS011;49099;28.428;-16.488;2023-02-22T06:18:47;32.83;;;6.40;;
63008;SDS011;49099;28.428;-16.488;2023-02-22T06:21:14;32.92;;;6.47;;
63008;SDS011;49099;28.428;-16.488;2023-02-22T06:23:43;47.47;;;7.18;;
63008;SDS011;49099;28.428;-16.488;2023-02-22T06:26:10;37.33;;;6.53;;
63008;SDS011;49099;28.428;-16.488;2023-02-22T06:28:37;45.30;;;6.40;;
63008;SDS011;49099;28.428;-16.488;2023-02-22T06:31:04;30.90;;;5.72;;
63008;SDS011;49099;28.428;-16.488;2023-02-22T06:33:32;32.78;;;6.18;;
63008;SDS011;49099;28.428;-16.488;2023-02-22T06:35:59;37.72;;;7.13;;
63008;SDS011;49099;28.428;-16.488;2023-02-22T06:38:26;42.28;;;6.45;;
63008;SDS011;49099;28.428;-16.488;2023-02-22T06:40:53;39.38;;;6.30;;
63008;SDS011;49099;28.428;-16.488;2023-02-22T06:43:21;31.52;;;5.47;;
63008;SDS011;49099;28.428;-16.488;2023-02-22T06:45:50;35.53;;;6.22;;
63008;SDS011;49099;28.428;-16.488;2023-02-22T06:48:18;38.00;;;6.60;;
63008;SDS011;49099;28.428;-16.488;2023-02-22T06:50:45;30.83;;;5.88;;
63008;SDS011;49099;28.428;-16.488;2023-02-22T06:53:13;36.78;;;6.35;;
63008;SDS011;49099;28.428;-16.488;2023-02-22T06:55:40;44.67;;;7.15;;
63008;SDS011;49099;28.428;-16.488;2023-02-22T06:58:07;40.92;;;6.97;;
63008;SDS011;49099;28.428;-16.488;2023-02-22T07:00:34;36.22;;;6.25;;
63008;SDS011;49099;28.428;-16.488;2023-02-22T07:03:02;37.70;;;6.97;;
63008;SDS011;49099;28.428;-16.488;2023-02-22T07:05:29;37.03;;;6.30;;
63008;SDS011;49099;28.428;-16.488;2023-02-22T07:08:01;33.55;;;6.03;;
63008;SDS011;49099;28.428;-16.488;2023-02-22T07:10:31;46.05;;;6.40;;
63008;SDS011;49099;28.428;-16.488;2023-02-22T07:13:00;37.72;;;6.35;;
63008;SDS011;49099;28.428;-16.488;2023-02-22T07:15:30;43.60;;;6.75;;
63008;SDS011;49099;28.428;-16.488;2023-02-22T07:17:58;44.42;;;6.60;;
63008;SDS011;49099;28.428;-16.488;2023-02-22T07:20:30;34.75;;;6.40;;
63008;SDS011;49099;28.428;-16.488;2023-02-22T07:22:57;45.63;;;6.90;;
63008;SDS011;49099;28.428;-16.488;2023-02-22T07:25:26;53.85;;;7.07;;
63008;SDS011;49099;28.428;-16.488;2023-02-22T07:27:53;37.00;;;6.60;;
63008;SDS011;49099;28.428;-16.488;2023-02-22T07:30:21;36.30;;;7.25;;
63008;SDS011;49099;28.428;-16.488;2023-02-22T07:32:51;56.70;;;7.75;;
63008;SDS011;49099;28.428;-16.488;2023-02-22T07:37:49;56.75;;;7.85;;
63008;SDS011;49099;28.428;-16.488;2023-02-22T07:40:19;57.72;;;8.18;;
63008;SDS011;49099;28.428;-16.488;2023-02-22T07:42:51;45.92;;;7.68;;
63008;SDS011;49099;28.428;-16.488;2023-02-22T07:45:34;51.42;;;7.82;;
63008;SDS011;49099;28.428;-16.488;2023-02-22T07:48:02;52.72;;;7.93;;
63008;SDS011;49099;28.428;-16.488;2023-02-22T07:50:31;45.97;;;7.95;;
63008;SDS011;49099;28.428;-16.488;2023-02-22T07:53:01;51.92;;;8.20;;
63008;SDS011;49099;28.428;-16.488;2023-02-22T07:55:31;51.67;;;7.55;;
63008;SDS011;49099;28.428;-16.488;2023-02-22T07:58:00;60.63;;;8.77;;
63008;SDS011;49099;28.428;-16.488;2023-02-22T08:00:31;62.17;;;8.07;;
63008;SDS011;49099;28.428;-16.488;2023-02-22T08:03:01;57.70;;;7.85;;
63008;SDS011;49099;28.428;-16.488;2023-02-22T08:05:31;44.63;;;8.00;;
63008;SDS011;49099;28.428;-16.488;2023-02-22T08:07:59;47.40;;;7.38;;
63008;SDS011;49099;28.428;-16.488;2023-02-22T08:10:27;40.22;;;7.95;;
63008;SDS011;49099;28.428;-16.488;2023-02-22T08:12:55;45.53;;;7.43;;
63008;SDS011;49099;28.428;-16.488;2023-02-22T08:15:29;51.72;;;8.38;;
63008;SDS011;49099;28.428;-16.488;2023-02-22T08:17:58;51.38;;;7.82;;
63008;SDS011;49099;28.428;-16.488;2023-02-22T08:20:27;49.72;;;7.68;;
63008;SDS011;49099;28.428;-16.488;2023-02-22T08:22:55;62.17;;;8.73;;
63008;SDS011;49099;28.428;-16.488;2023-02-22T08:25:24;44.40;;;7.03;;
63008;SDS011;49099;28.428;-16.488;2023-02-22T08:27:57;52.13;;;8.27;;
63008;SDS011;49099;28.428;-16.488;2023-02-22T08:30:30;49.28;;;8.05;;
63008;SDS011;49099;28.428;-16.488;2023-02-22T08:32:58;44.80;;;7.75;;
63008;SDS011;49099;28.428;-16.488;2023-02-22T08:35:26;51.72;;;7.53;;
63008;SDS011;49099;28.428;-16.488;2023-02-22T08:37:54;56.47;;;7.65;;
63008;SDS011;49099;28.428;-16.488;2023-02-22T08:40:25;43.63;;;7.50;;
63008;SDS011;49099;28.428;-16.488;2023-02-22T08:42:54;44.38;;;7.85;;
63008;SDS011;49099;28.428;-16.488;2023-02-22T08:45:21;49.38;;;8.25;;
63008;SDS011;49099;28.428;-16.488;2023-02-22T08:47:48;48.47;;;7.85;;
63008;SDS011;49099;28.428;-16.488;2023-02-22T08:50:20;45.10;;;7.20;;
63008;SDS011;49099;28.428;-16.488;2023-02-22T08:52:53;50.78;;;7.78;;
63008;SDS011;49099;28.428;-16.488;2023-02-22T08:55:25;52.70;;;8.15;;
63008;SDS011;49099;28.428;-16.488;2023-02-22T08:57:53;51.42;;;8.20;;
63008;SDS011;49099;28.428;-16.488;2023-02-22T09:00:21;61.40;;;8.57;;
63008;SDS011;49099;28.428;-16.488;2023-02-22T09:02:51;51.40;;;8.05;;
63008;SDS011;49099;28.428;-16.488;2023-02-22T09:05:18;55.28;;;8.68;;
63008;SDS011;49099;28.428;-16.488;2023-02-22T09:07:46;54.47;;;8.13;;
63008;SDS011;49099;28.428;-16.488;2023-02-22T09:10:14;56.75;;;8.18;;
63008;SDS011;49099;28.428;-16.488;2023-02-22T09:12:43;49.92;;;7.13;;
63008;SDS011;49099;28.428;-16.488;2023-02-22T09:15:10;59.15;;;7.43;;
63008;SDS011;49099;28.428;-16.488;2023-02-22T09:17:38;51.45;;;8.35;;
63008;SDS011;49099;28.428;-16.488;2023-02-22T09:20:05;43.15;;;7.57;;
63008;SDS011;49099;28.428;-16.488;2023-02-22T09:22:33;45.85;;;8.00;;
63008;SDS011;49099;28.428;-16.488;2023-02-22T09:25:01;51.75;;;8.27;;
63008;SDS011;49099;28.428;-16.488;2023-02-22T09:27:41;43.47;;;8.00;;
63008;SDS011;49099;28.428;-16.488;2023-02-22T09:32:54;50.95;;;7.55;;
63008;SDS011;49099;28.428;-16.488;2023-02-22T09:35:24;48.70;;;7.60;;
63008;SDS011;49099;28.428;-16.488;2023-02-22T09:37:56;51.95;;;8.02;;
63008;SDS011;49099;28.428;-16.488;2023-02-22T09:40:27;57.22;;;8.40;;
63008;SDS011;49099;28.428;-16.488;2023-02-22T09:45:33;43.05;;;7.82;;
63008;SDS011;49099;28.428;-16.488;2023-02-22T09:48:06;50.70;;;8.10;;
63008;SDS011;49099;28.428;-16.488;2023-02-22T09:50:47;60.35;;;8.88;;
63008;SDS011;49099;28.428;-16.488;2023-02-22T09:56:09;47.40;;;7.30;;
63008;SDS011;49099;28.428;-16.488;2023-02-22T09:58:40;57.85;;;8.52;;
63008;SDS011;49099;28.428;-16.488;2023-02-22T10:06:41;48.00;;;7.90;;
63008;SDS011;49099;28.428;-16.488;2023-02-22T10:09:19;48.75;;;7.80;;
63008;SDS011;49099;28.428;-16.488;2023-02-22T10:11:51;62.83;;;8.68;;
63008;SDS011;49099;28.428;-16.488;2023-02-22T10:19:51;65.30;;;8.88;;
63008;SDS011;49099;28.428;-16.488;2023-02-22T10:25:23;61.92;;;8.60;;
63008;SDS011;49099;28.428;-16.488;2023-02-22T10:28:55;54.72;;;8.75;;
63008;SDS011;49099;28.428;-16.488;2023-02-22T10:30:57;52.37;;;8.20;;
63008;SDS011;49099;28.428;-16.488;2023-02-22T10:33:46;59.58;;;9.38;;
63008;SDS011;49099;28.428;-16.488;2023-02-22T10:36:21;74.45;;;9.45;;
63008;SDS011;49099;28.428;-16.488;2023-02-22T10:38:57;60.83;;;9.02;;
63008;SDS011;49099;28.428;-16.488;2023-02-22T10:41:39;59.72;;;9.63;;
63008;SDS011;49099;28.428;-16.488;2023-02-22T10:46:38;52.40;;;7.90;;
63008;SDS011;49099;28.428;-16.488;2023-02-22T10:49:07;61.17;;;8.48;;
63008;SDS011;49099;28.428;-16.488;2023-02-22T10:51:37;58.60;;;7.72;;
63008;SDS011;49099;28.428;-16.488;2023-02-22T10:56:50;79.10;;;9.00;;
63008;SDS011;49099;28.428;-16.488;2023-02-22T10:59:36;61.97;;;8.82;;
63008;SDS011;49099;28.428;-16.488;2023-02-22T11:02:15;63.95;;;8.68;;
63008;SDS011;49099;28.428;-16.488;2023-02-22T11:04:51;51.83;;;7.13;;
63008;SDS011;49099;28.428;-16.488;2023-02-22T11:09:54;58.13;;;8.63;;
63008;SDS011;49099;28.428;-16.488;2023-02-22T11:12:27;53.92;;;8.65;;
63008;SDS011;49099;28.428;-16.488;2023-02-22T11:17:45;60.97;;;9.07;;
63008;SDS011;49099;28.428;-16.488;2023-02-22T11:20:21;53.03;;;8.18;;
63008;SDS011;49099;28.428;-16.488;2023-02-22T11:22:55;64.90;;;9.68;;
63008;SDS011;49099;28.428;-16.488;2023-02-22T11:25:38;50.28;;;8.85;;
63008;SDS011;49099;28.428;-16.488;2023-02-22T11:28:13;64.35;;;9.65;;
63008;SDS011;49099;28.428;-16.488;2023-02-22T11:30:48;57.55;;;9.57;;
63008;SDS011;49099;28.428;-16.488;2023-02-22T11:33:21;58.05;;;9.00;;
63008;SDS011;49099;28.428;-16.488;2023-02-22T11:35:55;62.25;;;8.40;;
63008;SDS011;49099;28.428;-16.488;2023-02-22T11:38:25;68.97;;;9.73;;
63008;SDS011;49099;28.428;-16.488;2023-02-22T11:43:51;54.05;;;8.77;;
63008;SDS011;49099;28.428;-16.488;2023-02-22T11:47:12;56.60;;;8.48;;
63008;SDS011;49099;28.428;-16.488;2023-02-22T11:49:40;56.75;;;8.75;;
63008;SDS011;49099;28.428;-16.488;2023-02-22T11:52:22;63.35;;;8.15;;
63008;SDS011;49099;28.428;-16.488;2023-02-22T12:01:04;58.60;;;9.07;;
63008;SDS011;49099;28.428;-16.488;2023-02-22T12:04:06;56.10;;;8.48;;
63008;SDS011;49099;28.428;-16.488;2023-02-22T12:07:35;61.63;;;9.85;;
63008;SDS011;49099;28.428;-16.488;2023-02-22T12:09:42;59.45;;;9.18;;
63008;SDS011;49099;28.428;-16.488;2023-02-22T12:20:49;58.55;;;8.93;;
63008;SDS011;49099;28.428;-16.488;2023-02-22T12:23:23;59.17;;;8.75;;
63008;SDS011;49099;28.428;-16.488;2023-02-22T12:26:08;59.47;;;8.05;;
63008;SDS011;49099;28.428;-16.488;2023-02-22T12:28:46;59.58;;;8.45;;
63008;SDS011;49099;28.428;-16.488;2023-02-22T12:34:02;46.03;;;8.25;;
63008;SDS011;49099;28.428;-16.488;2023-02-22T12:36:44;54.03;;;8.88;;
63008;SDS011;49099;28.428;-16.488;2023-02-22T12:39:57;58.95;;;9.63;;
63008;SDS011;49099;28.428;-16.488;2023-02-22T12:43:07;56.45;;;8.77;;
63008;SDS011;49099;28.428;-16.488;2023-02-22T12:45:23;46.13;;;8.13;;
63008;SDS011;49099;28.428;-16.488;2023-02-22T12:48:03;53.45;;;8.05;;
63008;SDS011;49099;28.428;-16.488;2023-02-22T12:50:32;41.42;;;7.80;;
63008;SDS011;49099;28.428;-16.488;2023-02-22T12:53:03;50.90;;;8.82;;
63008;SDS011;49099;28.428;-16.488;2023-02-22T12:55:41;71.32;;;9.20;;
63008;SDS011;49099;28.428;-16.488;2023-02-22T13:01:04;56.58;;;8.82;;
63008;SDS011;49099;28.428;-16.488;2023-02-22T13:03:40;56.03;;;8.05;;
63008;SDS011;49099;28.428;-16.488;2023-02-22T13:14:51;63.72;;;8.82;;
63008;SDS011;49099;28.428;-16.488;2023-02-22T13:17:33;56.45;;;8.27;;
63008;SDS011;49099;28.428;-16.488;2023-02-22T13:31:34;48.47;;;8.07;;
63008;SDS011;49099;28.428;-16.488;2023-02-22T13:34:13;54.45;;;8.20;;
63008;SDS011;49099;28.428;-16.488;2023-02-22T13:42:06;58.50;;;8.15;;
63008;SDS011;49099;28.428;-16.488;2023-02-22T13:52:48;46.35;;;7.30;;
63008;SDS011;49099;28.428;-16.488;2023-02-22T13:55:25;49.45;;;7.35;;
63008;SDS011;49099;28.428;-16.488;2023-02-22T13:57:59;49.50;;;7.97;;
63008;SDS011;49099;28.428;-16.488;2023-02-22T14:03:39;49.08;;;8.18;;
63008;SDS011;49099;28.428;-16.488;2023-02-22T14:06:07;54.83;;;7.70;;
63008;SDS011;49099;28.428;-16.488;2023-02-22T14:08:37;54.42;;;7.53;;
63008;SDS011;49099;28.428;-16.488;2023-02-22T14:16:24;52.97;;;7.60;;
63008;SDS011;49099;28.428;-16.488;2023-02-22T14:19:00;58.20;;;8.30;;
63008;SDS011;49099;28.428;-16.488;2023-02-22T14:21:58;45.65;;;7.18;;
63008;SDS011;49099;28.428;-16.488;2023-02-22T14:24:39;49.13;;;6.85;;
63008;SDS011;49099;28.428;-16.488;2023-02-22T14:27:08;49.45;;;7.68;;
63008;SDS011;49099;28.428;-16.488;2023-02-22T14:29:37;49.40;;;7.47;;
63008;SDS011;49099;28.428;-16.488;2023-02-22T14:32:33;52.40;;;7.72;;
63008;SDS011;49099;28.428;-16.488;2023-02-22T14:35:05;52.00;;;7.45;;
63008;SDS011;49099;28.428;-16.488;2023-02-22T14:37:52;44.88;;;7.38;;
63008;SDS011;49099;28.428;-16.488;2023-02-22T14:43:00;50.95;;;7.97;;
63008;SDS011;49099;28.428;-16.488;2023-02-22T14:45:32;48.75;;;7.30;;
63008;SDS011;49099;28.428;-16.488;2023-02-22T14:56:02;50.97;;;7.72;;
63008;SDS011;49099;28.428;-16.488;2023-02-22T15:01:16;49.70;;;7.35;;
63008;SDS011;49099;28.428;-16.488;2023-02-22T15:03:56;53.00;;;7.72;;
63008;SDS011;49099;28.428;-16.488;2023-02-22T15:06:33;49.95;;;7.63;;
63008;SDS011;49099;28.428;-16.488;2023-02-22T15:09:10;50.72;;;8.18;;
63008;SDS011;49099;28.428;-16.488;2023-02-22T15:11:37;54.85;;;7.95;;
63008;SDS011;49099;28.428;-16.488;2023-02-22T15:14:18;46.63;;;6.82;;
63008;SDS011;49099;28.428;-16.488;2023-02-22T15:16:52;53.17;;;8.43;;
63008;SDS011;49099;28.428;-16.488;2023-02-22T15:19:26;52.90;;;8.27;;
63008;SDS011;49099;28.428;-16.488;2023-02-22T15:21:56;51.72;;;8.25;;
63008;SDS011;49099;28.428;-16.488;2023-02-22T15:24:29;59.25;;;7.78;;
63008;SDS011;49099;28.428;-16.488;2023-02-22T15:27:06;50.10;;;7.97;;
63008;SDS011;49099;28.428;-16.488;2023-02-22T15:29:40;37.92;;;6.15;;
63008;SDS011;49099;28.428;-16.488;2023-02-22T15:32:32;42.15;;;7.47;;
63008;SDS011;49099;28.428;-16.488;2023-02-22T15:37:59;44.38;;;7.07;;
63008;SDS011;49099;28.428;-16.488;2023-02-22T15:40:28;49.92;;;7.78;;
63008;SDS011;49099;28.428;-16.488;2023-02-22T15:42:59;49.17;;;8.63;;
63008;SDS011;49099;28.428;-16.488;2023-02-22T15:45:28;52.88;;;7.25;;
63008;SDS011;49099;28.428;-16.488;2023-02-22T15:47:57;55.35;;;7.97;;
63008;SDS011;49099;28.428;-16.488;2023-02-22T15:53:04;50.10;;;8.13;;
63008;SDS011;49099;28.428;-16.488;2023-02-22T15:55:56;55.95;;;8.20;;
63008;SDS011;49099;28.428;-16.488;2023-02-22T15:58:26;55.67;;;7.25;;
63008;SDS011;49099;28.428;-16.488;2023-02-22T16:01:02;46.05;;;8.23;;
63008;SDS011;49099;28.428;-16.488;2023-02-22T16:03:44;53.88;;;7.82;;
63008;SDS011;49099;28.428;-16.488;2023-02-22T16:06:33;46.53;;;7.63;;
63008;SDS011;49099;28.428;-16.488;2023-02-22T16:11:42;53.22;;;7.70;;
63008;SDS011;49099;28.428;-16.488;2023-02-22T16:14:26;53.03;;;8.30;;
63008;SDS011;49099;28.428;-16.488;2023-02-22T16:19:57;54.25;;;8.30;;
63008;SDS011;49099;28.428;-16.488;2023-02-22T16:22:45;53.65;;;7.25;;
63008;SDS011;49099;28.428;-16.488;2023-02-22T16:27:44;47.22;;;7.65;;
63008;SDS011;49099;28.428;-16.488;2023-02-22T16:32:51;64.32;;;9.43;;
63008;SDS011;49099;28.428;-16.488;2023-02-22T16:35:21;43.78;;;7.22;;
63008;SDS011;49099;28.428;-16.488;2023-02-22T16:38:01;64.25;;;8.45;;
63008;SDS011;49099;28.428;-16.488;2023-02-22T16:43:14;50.33;;;8.02;;
63008;SDS011;49099;28.428;-16.488;2023-02-22T16:45:50;59.30;;;7.47;;
63008;SDS011;49099;28.428;-16.488;2023-02-22T16:48:25;68.22;;;8.70;;
63008;SDS011;49099;28.428;-16.488;2023-02-22T16:50:58;50.13;;;7.75;;
63008;SDS011;49099;28.428;-16.488;2023-02-22T16:53:29;50.67;;;7.60;;
63008;SDS011;49099;28.428;-16.488;2023-02-22T16:56:00;55.55;;;7.80;;
63008;SDS011;49099;28.428;-16.488;2023-02-22T16:58:31;56.05;;;8.38;;
63008;SDS011;49099;28.428;-16.488;2023-02-22T17:01:02;50.78;;;7.65;;
63008;SDS011;49099;28.428;-16.488;2023-02-22T17:03:29;46.80;;;7.47;;
63008;SDS011;49099;28.428;-16.488;2023-02-22T17:05:56;51.28;;;7.93;;
63008;SDS011;49099;28.428;-16.488;2023-02-22T17:08:23;50.47;;;7.60;;
63008;SDS011;49099;28.428;-16.488;2023-02-22T17:10:50;41.80;;;7.65;;
63008;SDS011;49099;28.428;-16.488;2023-02-22T17:13:23;52.08;;;7.22;;
63008;SDS011;49099;28.428;-16.488;2023-02-22T17:15:52;42.05;;;7.18;;
63008;SDS011;49099;28.428;-16.488;2023-02-22T17:18:23;47.90;;;7.30;;
63008;SDS011;49099;28.428;-16.488;2023-02-22T17:20:54;46.80;;;7.00;;
63008;SDS011;49099;28.428;-16.488;2023-02-22T17:23:22;44.90;;;6.70;;